sensor_id;sensor_type;location;lat;lon;timestamp;P1;durP1;ratioP1;P2;durP2;ratioP2
68178;SDS011;69812;42.632;23.440;2024-01-30T00:01:13;27.10;;;10.23;;
68178;SDS011;69812;42.632;23.440;2024-01-30T00:03:38;35.85;;;12.02;;
68178;SDS011;69812;42.632;23.440;2024-01-30T00:06:04;21.17;;;6.82;;
68178;SDS011;69812;42.632;23.440;2024-01-30T00:08:32;33.45;;;9.63;;
68178;SDS011;69812;42.632;23.440;2024-01-30T00:10:57;46.30;;;15.98;;
68178;SDS011;69812;42.632;23.440;2024-01-30T00:13:22;46.30;;;14.38;;
68178;SDS011;69812;42.632;23.440;2024-01-30T00:15:48;34.15;;;9.70;;
68178;SDS011;69812;42.632;23.440;2024-01-30T00:18:13;26.50;;;8.80;;
68178;SDS011;69812;42.632;23.440;2024-01-30T00:20:39;39.67;;;13.52;;
68178;SDS011;69812;42.632;23.440;2024-01-30T00:23:04;27.10;;;10.80;;
68178;SDS011;69812;42.632;23.440;2024-01-30T00:25:30;17.77;;;6.18;;
68178;SDS011;69812;42.632;23.440;2024-01-30T00:27:55;23.88;;;9.15;;
68178;SDS011;69812;42.632;23.440;2024-01-30T00:30:21;24.23;;;9.15;;
68178;SDS011;69812;42.632;23.440;2024-01-30T00:32:47;23.77;;;10.30;;
68178;SDS011;69812;42.632;23.440;2024-01-30T00:35:12;19.02;;;7.88;;
68178;SDS011;69812;42.632;23.440;2024-01-30T00:37:37;17.92;;;7.43;;
68178;SDS011;69812;42.632;23.440;2024-01-30T00:40:03;25.08;;;9.27;;
68178;SDS011;69812;42.632;23.440;2024-01-30T00:42:29;29.05;;;10.90;;
68178;SDS011;69812;42.632;23.440;2024-01-30T00:44:54;19.55;;;8.00;;
68178;SDS011;69812;42.632;23.440;2024-01-30T00:47:19;28.38;;;10.93;;
68178;SDS011;69812;42.632;23.440;2024-01-30T00:49:45;42.85;;;16.13;;
68178;SDS011;69812;42.632;23.440;2024-01-30T00:52:11;32.83;;;12.73;;
68178;SDS011;69812;42.632;23.440;2024-01-30T00:54:36;23.35;;;7.63;;
68178;SDS011;69812;42.632;23.440;2024-01-30T00:57:02;18.58;;;7.82;;
68178;SDS011;69812;42.632;23.440;2024-01-30T00:59:27;28.17;;;8.80;;
68178;SDS011;69812;42.632;23.440;2024-01-30T01:01:53;16.70;;;7.38;;
68178;SDS011;69812;42.632;23.440;2024-01-30T01:04:18;18.80;;;8.75;;
68178;SDS011;69812;42.632;23.440;2024-01-30T01:06:46;27.98;;;10.23;;
68178;SDS011;69812;42.632;23.440;2024-01-30T01:09:11;46.58;;;17.45;;
68178;SDS011;69812;42.632;23.440;2024-01-30T01:11:37;28.15;;;10.52;;
68178;SDS011;69812;42.632;23.440;2024-01-30T01:14:03;10.77;;;4.45;;
68178;SDS011;69812;42.632;23.440;2024-01-30T01:16:29;14.63;;;5.15;;
68178;SDS011;69812;42.632;23.440;2024-01-30T01:18:54;20.75;;;7.18;;
68178;SDS011;69812;42.632;23.440;2024-01-30T01:21:20;16.83;;;6.65;;
68178;SDS011;69812;42.632;23.440;2024-01-30T01:23:45;35.08;;;13.65;;
68178;SDS011;69812;42.632;23.440;2024-01-30T01:26:11;26.25;;;9.77;;
68178;SDS011;69812;42.632;23.440;2024-01-30T01:28:36;30.88;;;9.80;;
68178;SDS011;69812;42.632;23.440;2024-01-30T01:31:01;35.10;;;12.32;;
68178;SDS011;69812;42.632;23.440;2024-01-30T01:33:33;16.05;;;6.00;;
68178;SDS011;69812;42.632;23.440;2024-01-30T01:35:59;15.55;;;6.30;;
68178;SDS011;69812;42.632;23.440;2024-01-30T01:38:27;33.22;;;11.25;;
68178;SDS011;69812;42.632;23.440;2024-01-30T01:40:53;18.10;;;6.68;;
68178;SDS011;69812;42.632;23.440;2024-01-30T01:43:18;24.50;;;9.30;;
68178;SDS011;69812;42.632;23.440;2024-01-30T01:45:44;37.22;;;12.57;;
68178;SDS011;69812;42.632;23.440;2024-01-30T01:48:10;22.13;;;7.65;;
68178;SDS011;69812;42.632;23.440;2024-01-30T01:50:37;10.32;;;4.10;;
68178;SDS011;69812;42.632;23.440;2024-01-30T01:53:03;20.73;;;7.32;;
68178;SDS011;69812;42.632;23.440;2024-01-30T01:55:30;13.57;;;5.10;;
68178;SDS011;69812;42.632;23.440;2024-01-30T01:57:57;25.05;;;9.68;;
68178;SDS011;69812;42.632;23.440;2024-01-30T02:00:23;35.38;;;12.02;;
68178;SDS011;69812;42.632;23.440;2024-01-30T02:02:49;23.30;;;9.25;;
68178;SDS011;69812;42.632;23.440;2024-01-30T02:05:15;20.70;;;7.38;;
68178;SDS011;69812;42.632;23.440;2024-01-30T02:07:41;21.27;;;9.18;;
68178;SDS011;69812;42.632;23.440;2024-01-30T02:10:07;25.48;;;8.55;;
68178;SDS011;69812;42.632;23.440;2024-01-30T02:12:34;37.88;;;14.68;;
68178;SDS011;69812;42.632;23.440;2024-01-30T02:14:59;33.47;;;10.68;;
68178;SDS011;69812;42.632;23.440;2024-01-30T02:17:24;45.05;;;16.40;;
68178;SDS011;69812;42.632;23.440;2024-01-30T02:19:50;72.68;;;23.02;;
68178;SDS011;69812;42.632;23.440;2024-01-30T02:22:15;54.40;;;18.63;;
68178;SDS011;69812;42.632;23.440;2024-01-30T02:24:41;21.50;;;9.13;;
68178;SDS011;69812;42.632;23.440;2024-01-30T02:27:06;21.15;;;9.00;;
68178;SDS011;69812;42.632;23.440;2024-01-30T02:29:32;38.75;;;12.90;;
68178;SDS011;69812;42.632;23.440;2024-01-30T02:31:57;24.33;;;11.50;;
68178;SDS011;69812;42.632;23.440;2024-01-30T02:34:23;32.60;;;11.85;;
68178;SDS011;69812;42.632;23.440;2024-01-30T02:36:48;37.17;;;13.77;;
68178;SDS011;69812;42.632;23.440;2024-01-30T02:39:14;49.58;;;19.27;;
68178;SDS011;69812;42.632;23.440;2024-01-30T02:41:39;42.47;;;16.45;;
68178;SDS011;69812;42.632;23.440;2024-01-30T02:44:05;38.90;;;15.68;;
68178;SDS011;69812;42.632;23.440;2024-01-30T02:46:30;50.58;;;20.40;;
68178;SDS011;69812;42.632;23.440;2024-01-30T02:48:56;28.77;;;11.25;;
68178;SDS011;69812;42.632;23.440;2024-01-30T02:51:22;38.15;;;14.68;;
68178;SDS011;69812;42.632;23.440;2024-01-30T02:53:47;27.15;;;10.98;;
68178;SDS011;69812;42.632;23.440;2024-01-30T02:56:12;24.75;;;10.15;;
68178;SDS011;69812;42.632;23.440;2024-01-30T02:58:39;26.05;;;10.00;;
68178;SDS011;69812;42.632;23.440;2024-01-30T03:01:06;24.33;;;9.05;;
68178;SDS011;69812;42.632;23.440;2024-01-30T03:03:31;28.58;;;12.30;;
68178;SDS011;69812;42.632;23.440;2024-01-30T03:05:57;41.13;;;15.27;;
68178;SDS011;69812;42.632;23.440;2024-01-30T03:08:22;17.33;;;8.30;;
68178;SDS011;69812;42.632;23.440;2024-01-30T03:10:48;37.65;;;13.23;;
68178;SDS011;69812;42.632;23.440;2024-01-30T03:13:13;27.45;;;11.32;;
68178;SDS011;69812;42.632;23.440;2024-01-30T03:15:39;22.35;;;9.45;;
68178;SDS011;69812;42.632;23.440;2024-01-30T03:18:04;26.23;;;9.77;;
68178;SDS011;69812;42.632;23.440;2024-01-30T03:20:30;31.77;;;12.02;;
68178;SDS011;69812;42.632;23.440;2024-01-30T03:22:55;26.15;;;11.27;;
68178;SDS011;69812;42.632;23.440;2024-01-30T03:25:21;34.30;;;13.93;;
68178;SDS011;69812;42.632;23.440;2024-01-30T03:27:46;36.17;;;15.57;;
68178;SDS011;69812;42.632;23.440;2024-01-30T03:30:12;45.60;;;17.60;;
68178;SDS011;69812;42.632;23.440;2024-01-30T03:32:37;45.60;;;16.55;;
68178;SDS011;69812;42.632;23.440;2024-01-30T03:35:02;38.95;;;15.18;;
68178;SDS011;69812;42.632;23.440;2024-01-30T03:37:28;33.97;;;12.93;;
68178;SDS011;69812;42.632;23.440;2024-01-30T03:39:54;28.30;;;11.13;;
68178;SDS011;69812;42.632;23.440;2024-01-30T03:42:19;27.10;;;10.82;;
68178;SDS011;69812;42.632;23.440;2024-01-30T03:44:45;34.33;;;13.82;;
68178;SDS011;69812;42.632;23.440;2024-01-30T03:47:10;29.42;;;12.38;;
68178;SDS011;69812;42.632;23.440;2024-01-30T03:49:36;35.50;;;15.65;;
68178;SDS011;69812;42.632;23.440;2024-01-30T03:52:01;25.38;;;11.05;;
68178;SDS011;69812;42.632;23.440;2024-01-30T03:54:27;23.02;;;10.07;;
68178;SDS011;69812;42.632;23.440;2024-01-30T03:56:52;19.35;;;8.75;;
68178;SDS011;69812;42.632;23.440;2024-01-30T03:59:17;17.42;;;6.95;;
68178;SDS011;69812;42.632;23.440;2024-01-30T04:01:47;32.83;;;13.07;;
68178;SDS011;69812;42.632;23.440;2024-01-30T04:04:13;27.73;;;11.40;;
68178;SDS011;69812;42.632;23.440;2024-01-30T04:06:38;15.15;;;6.80;;
68178;SDS011;69812;42.632;23.440;2024-01-30T04:09:04;15.02;;;6.28;;
68178;SDS011;69812;42.632;23.440;2024-01-30T04:11:29;22.83;;;8.85;;
68178;SDS011;69812;42.632;23.440;2024-01-30T04:13:54;23.58;;;9.77;;
68178;SDS011;69812;42.632;23.440;2024-01-30T04:16:20;27.15;;;10.90;;
68178;SDS011;69812;42.632;23.440;2024-01-30T04:18:47;16.38;;;6.53;;
68178;SDS011;69812;42.632;23.440;2024-01-30T04:21:12;17.88;;;6.85;;
68178;SDS011;69812;42.632;23.440;2024-01-30T04:23:39;13.57;;;5.80;;
68178;SDS011;69812;42.632;23.440;2024-01-30T04:26:05;11.93;;;5.22;;
68178;SDS011;69812;42.632;23.440;2024-01-30T04:28:30;19.58;;;8.32;;
68178;SDS011;69812;42.632;23.440;2024-01-30T04:30:55;20.80;;;6.95;;
68178;SDS011;69812;42.632;23.440;2024-01-30T04:33:21;28.30;;;11.23;;
68178;SDS011;69812;42.632;23.440;2024-01-30T04:35:48;18.10;;;7.05;;
68178;SDS011;69812;42.632;23.440;2024-01-30T04:40:39;23.73;;;7.05;;
68178;SDS011;69812;42.632;23.440;2024-01-30T04:43:05;18.98;;;6.22;;
68178;SDS011;69812;42.632;23.440;2024-01-30T04:45:30;15.00;;;5.57;;
68178;SDS011;69812;42.632;23.440;2024-01-30T04:47:56;17.92;;;6.65;;
68178;SDS011;69812;42.632;23.440;2024-01-30T04:50:21;16.75;;;6.35;;
68178;SDS011;69812;42.632;23.440;2024-01-30T04:52:48;16.58;;;6.47;;
68178;SDS011;69812;42.632;23.440;2024-01-30T04:55:13;15.15;;;5.30;;
68178;SDS011;69812;42.632;23.440;2024-01-30T04:57:39;26.38;;;8.77;;
68178;SDS011;69812;42.632;23.440;2024-01-30T05:00:04;10.38;;;4.88;;
68178;SDS011;69812;42.632;23.440;2024-01-30T05:02:30;24.80;;;10.23;;
68178;SDS011;69812;42.632;23.440;2024-01-30T05:04:56;17.35;;;6.32;;
68178;SDS011;69812;42.632;23.440;2024-01-30T05:07:22;10.80;;;4.47;;
68178;SDS011;69812;42.632;23.440;2024-01-30T05:09:47;12.98;;;4.93;;
68178;SDS011;69812;42.632;23.440;2024-01-30T05:12:13;20.50;;;7.43;;
68178;SDS011;69812;42.632;23.440;2024-01-30T05:14:38;18.25;;;7.25;;
68178;SDS011;69812;42.632;23.440;2024-01-30T05:17:03;20.15;;;7.07;;
68178;SDS011;69812;42.632;23.440;2024-01-30T05:19:29;13.63;;;5.72;;
68178;SDS011;69812;42.632;23.440;2024-01-30T05:21:54;26.40;;;10.35;;
68178;SDS011;69812;42.632;23.440;2024-01-30T05:24:20;20.30;;;7.90;;
68178;SDS011;69812;42.632;23.440;2024-01-30T05:26:45;26.10;;;8.95;;
68178;SDS011;69812;42.632;23.440;2024-01-30T05:29:12;14.85;;;5.63;;
68178;SDS011;69812;42.632;23.440;2024-01-30T05:31:37;13.52;;;4.70;;
68178;SDS011;69812;42.632;23.440;2024-01-30T05:34:03;28.27;;;10.00;;
68178;SDS011;69812;42.632;23.440;2024-01-30T05:36:28;11.93;;;4.40;;
68178;SDS011;69812;42.632;23.440;2024-01-30T05:38:53;10.35;;;4.60;;
68178;SDS011;69812;42.632;23.440;2024-01-30T05:41:19;17.35;;;7.18;;
68178;SDS011;69812;42.632;23.440;2024-01-30T05:43:46;26.90;;;10.20;;
68178;SDS011;69812;42.632;23.440;2024-01-30T05:46:11;10.93;;;4.75;;
68178;SDS011;69812;42.632;23.440;2024-01-30T05:48:37;14.55;;;6.00;;
68178;SDS011;69812;42.632;23.440;2024-01-30T05:51:02;22.73;;;8.05;;
68178;SDS011;69812;42.632;23.440;2024-01-30T05:53:29;12.43;;;5.40;;
68178;SDS011;69812;42.632;23.440;2024-01-30T05:55:54;17.20;;;6.55;;
68178;SDS011;69812;42.632;23.440;2024-01-30T05:58:19;17.42;;;6.80;;
68178;SDS011;69812;42.632;23.440;2024-01-30T06:00:46;16.10;;;7.15;;
68178;SDS011;69812;42.632;23.440;2024-01-30T06:03:11;15.18;;;5.95;;
68178;SDS011;69812;42.632;23.440;2024-01-30T06:05:37;17.42;;;6.35;;
68178;SDS011;69812;42.632;23.440;2024-01-30T06:08:02;11.77;;;4.18;;
68178;SDS011;69812;42.632;23.440;2024-01-30T06:10:27;12.30;;;4.90;;
68178;SDS011;69812;42.632;23.440;2024-01-30T06:12:53;14.57;;;6.20;;
68178;SDS011;69812;42.632;23.440;2024-01-30T06:15:18;7.45;;;3.08;;
68178;SDS011;69812;42.632;23.440;2024-01-30T06:17:44;10.70;;;4.63;;
68178;SDS011;69812;42.632;23.440;2024-01-30T06:20:09;11.85;;;5.43;;
68178;SDS011;69812;42.632;23.440;2024-01-30T06:22:35;10.10;;;5.07;;
68178;SDS011;69812;42.632;23.440;2024-01-30T06:25:00;10.15;;;4.60;;
68178;SDS011;69812;42.632;23.440;2024-01-30T06:27:26;10.43;;;4.68;;
68178;SDS011;69812;42.632;23.440;2024-01-30T06:29:52;16.40;;;7.05;;
68178;SDS011;69812;42.632;23.440;2024-01-30T06:32:17;11.70;;;5.03;;
68178;SDS011;69812;42.632;23.440;2024-01-30T06:34:42;15.35;;;7.45;;
68178;SDS011;69812;42.632;23.440;2024-01-30T06:37:09;15.88;;;6.90;;
68178;SDS011;69812;42.632;23.440;2024-01-30T06:39:35;21.95;;;8.93;;
68178;SDS011;69812;42.632;23.440;2024-01-30T06:42:00;17.55;;;7.85;;
68178;SDS011;69812;42.632;23.440;2024-01-30T06:44:25;15.05;;;5.60;;
68178;SDS011;69812;42.632;23.440;2024-01-30T06:46:51;17.38;;;8.15;;
68178;SDS011;69812;42.632;23.440;2024-01-30T06:49:16;16.63;;;7.45;;
68178;SDS011;69812;42.632;23.440;2024-01-30T06:51:41;9.85;;;4.85;;
68178;SDS011;69812;42.632;23.440;2024-01-30T06:54:07;11.15;;;3.80;;
68178;SDS011;69812;42.632;23.440;2024-01-30T06:56:35;13.07;;;5.32;;
68178;SDS011;69812;42.632;23.440;2024-01-30T06:59:00;15.68;;;6.65;;
68178;SDS011;69812;42.632;23.440;2024-01-30T07:01:29;12.13;;;5.25;;
68178;SDS011;69812;42.632;23.440;2024-01-30T07:03:54;11.35;;;4.57;;
68178;SDS011;69812;42.632;23.440;2024-01-30T07:06:20;16.98;;;5.50;;
68178;SDS011;69812;42.632;23.440;2024-01-30T07:08:46;12.68;;;5.85;;
68178;SDS011;69812;42.632;23.440;2024-01-30T07:11:17;17.55;;;6.72;;
68178;SDS011;69812;42.632;23.440;2024-01-30T07:13:47;17.27;;;6.75;;
68178;SDS011;69812;42.632;23.440;2024-01-30T07:16:14;22.50;;;9.52;;
68178;SDS011;69812;42.632;23.440;2024-01-30T07:18:40;21.13;;;8.00;;
68178;SDS011;69812;42.632;23.440;2024-01-30T07:21:05;13.48;;;5.25;;
68178;SDS011;69812;42.632;23.440;2024-01-30T07:23:30;13.18;;;5.07;;
68178;SDS011;69812;42.632;23.440;2024-01-30T07:25:56;14.15;;;5.95;;
68178;SDS011;69812;42.632;23.440;2024-01-30T07:28:21;13.07;;;5.30;;
68178;SDS011;69812;42.632;23.440;2024-01-30T07:30:47;7.30;;;3.25;;
68178;SDS011;69812;42.632;23.440;2024-01-30T07:33:13;6.20;;;3.13;;
68178;SDS011;69812;42.632;23.440;2024-01-30T07:35:38;5.05;;;2.40;;
68178;SDS011;69812;42.632;23.440;2024-01-30T07:38:04;4.95;;;2.40;;
68178;SDS011;69812;42.632;23.440;2024-01-30T07:40:29;7.60;;;2.28;;
68178;SDS011;69812;42.632;23.440;2024-01-30T07:42:55;5.05;;;2.03;;
68178;SDS011;69812;42.632;23.440;2024-01-30T07:45:20;5.13;;;2.58;;
68178;SDS011;69812;42.632;23.440;2024-01-30T07:47:49;10.43;;;3.28;;
68178;SDS011;69812;42.632;23.440;2024-01-30T07:50:15;6.18;;;2.67;;
68178;SDS011;69812;42.632;23.440;2024-01-30T07:52:41;5.82;;;2.72;;
68178;SDS011;69812;42.632;23.440;2024-01-30T07:55:07;4.88;;;2.20;;
68178;SDS011;69812;42.632;23.440;2024-01-30T07:57:33;5.85;;;2.50;;
68178;SDS011;69812;42.632;23.440;2024-01-30T07:59:59;4.40;;;2.13;;
68178;SDS011;69812;42.632;23.440;2024-01-30T08:02:25;5.32;;;2.10;;
68178;SDS011;69812;42.632;23.440;2024-01-30T08:04:50;6.70;;;2.58;;
68178;SDS011;69812;42.632;23.440;2024-01-30T08:07:16;4.40;;;2.05;;
68178;SDS011;69812;42.632;23.440;2024-01-30T08:09:42;4.43;;;2.13;;
68178;SDS011;69812;42.632;23.440;2024-01-30T08:12:08;6.30;;;2.80;;
68178;SDS011;69812;42.632;23.440;2024-01-30T08:14:33;6.90;;;2.53;;
68178;SDS011;69812;42.632;23.440;2024-01-30T08:16:59;3.70;;;1.92;;
68178;SDS011;69812;42.632;23.440;2024-01-30T08:19:24;9.18;;;3.83;;
68178;SDS011;69812;42.632;23.440;2024-01-30T08:21:50;7.35;;;2.78;;
68178;SDS011;69812;42.632;23.440;2024-01-30T08:24:15;4.93;;;2.20;;
68178;SDS011;69812;42.632;23.440;2024-01-30T08:26:40;7.45;;;3.05;;
68178;SDS011;69812;42.632;23.440;2024-01-30T08:29:06;6.05;;;2.55;;
68178;SDS011;69812;42.632;23.440;2024-01-30T08:31:31;5.63;;;2.70;;
68178;SDS011;69812;42.632;23.440;2024-01-30T08:33:57;12.48;;;4.00;;
68178;SDS011;69812;42.632;23.440;2024-01-30T08:36:22;6.20;;;2.40;;
68178;SDS011;69812;42.632;23.440;2024-01-30T08:38:48;6.10;;;2.80;;
68178;SDS011;69812;42.632;23.440;2024-01-30T08:41:14;8.55;;;3.75;;
68178;SDS011;69812;42.632;23.440;2024-01-30T08:43:39;5.90;;;2.05;;
68178;SDS011;69812;42.632;23.440;2024-01-30T08:46:05;4.70;;;2.33;;
68178;SDS011;69812;42.632;23.440;2024-01-30T08:48:30;5.50;;;2.28;;
68178;SDS011;69812;42.632;23.440;2024-01-30T08:50:58;10.65;;;2.40;;
68178;SDS011;69812;42.632;23.440;2024-01-30T08:53:23;9.18;;;3.08;;
68178;SDS011;69812;42.632;23.440;2024-01-30T08:55:49;6.22;;;2.70;;
68178;SDS011;69812;42.632;23.440;2024-01-30T08:58:15;7.85;;;2.70;;
68178;SDS011;69812;42.632;23.440;2024-01-30T09:00:43;7.85;;;2.95;;
68178;SDS011;69812;42.632;23.440;2024-01-30T09:03:08;5.65;;;2.55;;
68178;SDS011;69812;42.632;23.440;2024-01-30T09:05:34;11.80;;;4.72;;
68178;SDS011;69812;42.632;23.440;2024-01-30T09:07:59;8.75;;;3.63;;
68178;SDS011;69812;42.632;23.440;2024-01-30T09:10:24;7.72;;;3.35;;
68178;SDS011;69812;42.632;23.440;2024-01-30T09:12:50;6.35;;;2.70;;
68178;SDS011;69812;42.632;23.440;2024-01-30T09:15:15;6.10;;;2.40;;
68178;SDS011;69812;42.632;23.440;2024-01-30T09:17:40;4.85;;;2.33;;
68178;SDS011;69812;42.632;23.440;2024-01-30T09:20:06;6.10;;;2.60;;
68178;SDS011;69812;42.632;23.440;2024-01-30T09:22:32;7.57;;;3.33;;
68178;SDS011;69812;42.632;23.440;2024-01-30T09:24:57;6.28;;;2.88;;
68178;SDS011;69812;42.632;23.440;2024-01-30T09:27:23;7.68;;;2.88;;
68178;SDS011;69812;42.632;23.440;2024-01-30T09:29:49;8.13;;;2.92;;
68178;SDS011;69812;42.632;23.440;2024-01-30T09:32:14;5.80;;;2.60;;
68178;SDS011;69812;42.632;23.440;2024-01-30T09:34:39;7.78;;;3.13;;
68178;SDS011;69812;42.632;23.440;2024-01-30T09:37:05;5.80;;;2.63;;
68178;SDS011;69812;42.632;23.440;2024-01-30T09:39:30;8.30;;;3.15;;
68178;SDS011;69812;42.632;23.440;2024-01-30T09:42:05;6.85;;;2.40;;
68178;SDS011;69812;42.632;23.440;2024-01-30T09:44:51;6.00;;;2.60;;
68178;SDS011;69812;42.632;23.440;2024-01-30T09:47:18;8.52;;;2.70;;
68178;SDS011;69812;42.632;23.440;2024-01-30T09:49:44;6.45;;;2.65;;
68178;SDS011;69812;42.632;23.440;2024-01-30T09:52:09;8.15;;;2.75;;
68178;SDS011;69812;42.632;23.440;2024-01-30T09:54:36;7.30;;;2.30;;
68178;SDS011;69812;42.632;23.440;2024-01-30T09:57:03;7.60;;;3.10;;
68178;SDS011;69812;42.632;23.440;2024-01-30T09:59:29;6.85;;;2.75;;
68178;SDS011;69812;42.632;23.440;2024-01-30T10:01:54;6.25;;;3.03;;
68178;SDS011;69812;42.632;23.440;2024-01-30T10:04:21;6.78;;;3.45;;
68178;SDS011;69812;42.632;23.440;2024-01-30T10:06:47;5.53;;;2.60;;
68178;SDS011;69812;42.632;23.440;2024-01-30T10:09:12;7.57;;;2.85;;
68178;SDS011;69812;42.632;23.440;2024-01-30T10:11:38;5.53;;;2.38;;
68178;SDS011;69812;42.632;23.440;2024-01-30T10:14:04;5.43;;;2.33;;
68178;SDS011;69812;42.632;23.440;2024-01-30T10:16:29;7.18;;;2.95;;
68178;SDS011;69812;42.632;23.440;2024-01-30T10:18:55;5.80;;;2.53;;
68178;SDS011;69812;42.632;23.440;2024-01-30T10:21:20;5.53;;;2.30;;
68178;SDS011;69812;42.632;23.440;2024-01-30T10:23:46;7.32;;;2.95;;
68178;SDS011;69812;42.632;23.440;2024-01-30T10:26:15;5.38;;;2.53;;
68178;SDS011;69812;42.632;23.440;2024-01-30T10:28:42;6.75;;;2.60;;
68178;SDS011;69812;42.632;23.440;2024-01-30T10:31:07;7.10;;;2.55;;
68178;SDS011;69812;42.632;23.440;2024-01-30T10:33:33;5.97;;;2.83;;
68178;SDS011;69812;42.632;23.440;2024-01-30T10:36:03;5.63;;;2.72;;
68178;SDS011;69812;42.632;23.440;2024-01-30T10:38:29;6.13;;;2.67;;
68178;SDS011;69812;42.632;23.440;2024-01-30T10:40:59;5.15;;;2.83;;
68178;SDS011;69812;42.632;23.440;2024-01-30T10:43:30;7.28;;;3.67;;
68178;SDS011;69812;42.632;23.440;2024-01-30T10:46:20;4.63;;;2.28;;
68178;SDS011;69812;42.632;23.440;2024-01-30T10:48:52;9.55;;;2.78;;
68178;SDS011;69812;42.632;23.440;2024-01-30T10:51:23;5.88;;;2.70;;
68178;SDS011;69812;42.632;23.440;2024-01-30T10:53:51;5.30;;;2.45;;
68178;SDS011;69812;42.632;23.440;2024-01-30T10:56:21;5.38;;;2.50;;
68178;SDS011;69812;42.632;23.440;2024-01-30T10:58:50;5.43;;;2.47;;
68178;SDS011;69812;42.632;23.440;2024-01-30T11:01:23;4.03;;;2.20;;
68178;SDS011;69812;42.632;23.440;2024-01-30T11:03:53;4.20;;;1.98;;
68178;SDS011;69812;42.632;23.440;2024-01-30T11:06:22;4.85;;;2.20;;
68178;SDS011;69812;42.632;23.440;2024-01-30T11:09:03;5.00;;;2.10;;
68178;SDS011;69812;42.632;23.440;2024-01-30T11:11:47;5.07;;;2.33;;
68178;SDS011;69812;42.632;23.440;2024-01-30T11:14:25;4.43;;;2.30;;
68178;SDS011;69812;42.632;23.440;2024-01-30T11:16:51;5.10;;;2.47;;
68178;SDS011;69812;42.632;23.440;2024-01-30T11:19:23;5.25;;;2.30;;
68178;SDS011;69812;42.632;23.440;2024-01-30T11:21:53;4.20;;;2.00;;
68178;SDS011;69812;42.632;23.440;2024-01-30T11:24:20;6.13;;;1.90;;
68178;SDS011;69812;42.632;23.440;2024-01-30T11:26:47;5.22;;;2.30;;
68178;SDS011;69812;42.632;23.440;2024-01-30T11:29:26;5.55;;;2.58;;
68178;SDS011;69812;42.632;23.440;2024-01-30T11:31:53;3.97;;;1.80;;
68178;SDS011;69812;42.632;23.440;2024-01-30T11:34:23;4.85;;;2.08;;
68178;SDS011;69812;42.632;23.440;2024-01-30T11:36:51;4.22;;;2.28;;
68178;SDS011;69812;42.632;23.440;2024-01-30T11:39:23;5.90;;;2.20;;
68178;SDS011;69812;42.632;23.440;2024-01-30T11:41:50;5.20;;;2.10;;
68178;SDS011;69812;42.632;23.440;2024-01-30T11:44:17;4.75;;;2.15;;
68178;SDS011;69812;42.632;23.440;2024-01-30T11:46:42;3.10;;;1.88;;
68178;SDS011;69812;42.632;23.440;2024-01-30T11:49:08;4.70;;;2.35;;
68178;SDS011;69812;42.632;23.440;2024-01-30T11:51:33;7.15;;;2.75;;
68178;SDS011;69812;42.632;23.440;2024-01-30T11:53:59;7.35;;;3.38;;
68178;SDS011;69812;42.632;23.440;2024-01-30T11:56:24;3.70;;;1.60;;
68178;SDS011;69812;42.632;23.440;2024-01-30T11:58:51;3.50;;;1.63;;
68178;SDS011;69812;42.632;23.440;2024-01-30T12:01:17;4.60;;;2.50;;
68178;SDS011;69812;42.632;23.440;2024-01-30T12:03:43;4.32;;;1.63;;
68178;SDS011;69812;42.632;23.440;2024-01-30T12:06:17;4.35;;;1.67;;
68178;SDS011;69812;42.632;23.440;2024-01-30T12:08:42;5.55;;;2.80;;
68178;SDS011;69812;42.632;23.440;2024-01-30T12:11:08;4.53;;;2.40;;
68178;SDS011;69812;42.632;23.440;2024-01-30T12:13:36;4.05;;;1.95;;
68178;SDS011;69812;42.632;23.440;2024-01-30T12:16:03;5.43;;;2.13;;
68178;SDS011;69812;42.632;23.440;2024-01-30T12:18:28;3.90;;;1.73;;
68178;SDS011;69812;42.632;23.440;2024-01-30T12:20:57;6.32;;;2.83;;
68178;SDS011;69812;42.632;23.440;2024-01-30T12:23:26;5.95;;;2.28;;
68178;SDS011;69812;42.632;23.440;2024-01-30T12:25:53;5.45;;;2.42;;
68178;SDS011;69812;42.632;23.440;2024-01-30T12:28:19;4.25;;;1.70;;
68178;SDS011;69812;42.632;23.440;2024-01-30T12:30:45;4.93;;;2.05;;
68178;SDS011;69812;42.632;23.440;2024-01-30T12:33:15;5.18;;;2.30;;
68178;SDS011;69812;42.632;23.440;2024-01-30T12:35:46;4.57;;;2.10;;
68178;SDS011;69812;42.632;23.440;2024-01-30T12:38:13;10.68;;;2.83;;
68178;SDS011;69812;42.632;23.440;2024-01-30T12:40:39;4.95;;;1.63;;
68178;SDS011;69812;42.632;23.440;2024-01-30T12:43:04;3.95;;;2.17;;
68178;SDS011;69812;42.632;23.440;2024-01-30T12:45:30;5.25;;;2.33;;
68178;SDS011;69812;42.632;23.440;2024-01-30T12:47:55;6.88;;;3.10;;
68178;SDS011;69812;42.632;23.440;2024-01-30T12:50:20;7.25;;;2.63;;
68178;SDS011;69812;42.632;23.440;2024-01-30T12:52:46;5.07;;;2.17;;
68178;SDS011;69812;42.632;23.440;2024-01-30T12:55:11;6.55;;;2.67;;
68178;SDS011;69812;42.632;23.440;2024-01-30T12:57:38;5.97;;;2.92;;
68178;SDS011;69812;42.632;23.440;2024-01-30T13:00:04;5.25;;;2.45;;
68178;SDS011;69812;42.632;23.440;2024-01-30T13:02:33;5.78;;;2.60;;
68178;SDS011;69812;42.632;23.440;2024-01-30T13:05:02;7.28;;;2.72;;
68178;SDS011;69812;42.632;23.440;2024-01-30T13:07:28;5.70;;;2.53;;
68178;SDS011;69812;42.632;23.440;2024-01-30T13:09:54;8.27;;;2.80;;
68178;SDS011;69812;42.632;23.440;2024-01-30T13:12:19;4.82;;;2.38;;
68178;SDS011;69812;42.632;23.440;2024-01-30T13:14:45;5.03;;;2.40;;
68178;SDS011;69812;42.632;23.440;2024-01-30T13:17:10;6.40;;;2.42;;
68178;SDS011;69812;42.632;23.440;2024-01-30T13:19:35;4.97;;;2.00;;
68178;SDS011;69812;42.632;23.440;2024-01-30T13:22:01;8.00;;;2.85;;
68178;SDS011;69812;42.632;23.440;2024-01-30T13:24:26;11.13;;;4.13;;
68178;SDS011;69812;42.632;23.440;2024-01-30T13:26:52;8.55;;;3.80;;
68178;SDS011;69812;42.632;23.440;2024-01-30T13:29:18;5.95;;;2.67;;
68178;SDS011;69812;42.632;23.440;2024-01-30T13:31:43;6.70;;;2.75;;
68178;SDS011;69812;42.632;23.440;2024-01-30T13:34:11;6.07;;;2.85;;
68178;SDS011;69812;42.632;23.440;2024-01-30T13:36:38;6.68;;;2.28;;
68178;SDS011;69812;42.632;23.440;2024-01-30T13:39:04;6.78;;;2.35;;
68178;SDS011;69812;42.632;23.440;2024-01-30T13:41:33;5.32;;;2.25;;
68178;SDS011;69812;42.632;23.440;2024-01-30T13:43:58;5.07;;;2.30;;
68178;SDS011;69812;42.632;23.440;2024-01-30T13:46:24;5.10;;;2.53;;
68178;SDS011;69812;42.632;23.440;2024-01-30T13:48:50;7.13;;;2.60;;
68178;SDS011;69812;42.632;23.440;2024-01-30T13:51:18;9.73;;;3.30;;
68178;SDS011;69812;42.632;23.440;2024-01-30T13:53:43;7.25;;;2.58;;
68178;SDS011;69812;42.632;23.440;2024-01-30T13:56:09;6.93;;;2.63;;
68178;SDS011;69812;42.632;23.440;2024-01-30T13:58:34;6.95;;;3.25;;
68178;SDS011;69812;42.632;23.440;2024-01-30T14:01:01;7.30;;;3.03;;
68178;SDS011;69812;42.632;23.440;2024-01-30T14:03:26;6.00;;;2.22;;
68178;SDS011;69812;42.632;23.440;2024-01-30T14:05:52;5.05;;;2.35;;
68178;SDS011;69812;42.632;23.440;2024-01-30T14:08:17;3.83;;;2.17;;
68178;SDS011;69812;42.632;23.440;2024-01-30T14:10:43;10.52;;;2.97;;
68178;SDS011;69812;42.632;23.440;2024-01-30T14:13:09;5.07;;;2.65;;
68178;SDS011;69812;42.632;23.440;2024-01-30T14:15:34;10.15;;;3.30;;
68178;SDS011;69812;42.632;23.440;2024-01-30T14:18:00;5.72;;;2.65;;
68178;SDS011;69812;42.632;23.440;2024-01-30T14:20:25;12.52;;;3.47;;
68178;SDS011;69812;42.632;23.440;2024-01-30T14:22:51;8.57;;;3.15;;